createdAt,value
2024-04-18T00:01:01.943Z,1.85
2024-04-18T00:03:28.762Z,1.90
2024-04-18T00:05:55.508Z,1.95
2024-04-18T00:08:22.278Z,2.08
2024-04-18T00:10:53.259Z,1.52
2024-04-18T00:13:20.027Z,1.90
2024-04-18T00:15:46.694Z,1.95
2024-04-18T00:18:13.473Z,1.02
2024-04-18T00:20:40.114Z,1.95
2024-04-18T00:23:06.727Z,1.85
2024-04-18T00:25:36.475Z,2.00
2024-04-18T00:28:03.205Z,2.15
2024-04-18T00:30:29.871Z,1.70
2024-04-18T00:32:56.600Z,1.85
2024-04-18T00:35:23.265Z,2.17
2024-04-18T00:37:49.922Z,1.77
2024-04-18T00:40:16.740Z,1.88
2024-04-18T00:42:43.387Z,1.70
2024-04-18T00:45:10.390Z,1.95
2024-04-18T00:47:38.083Z,1.65
2024-04-18T00:50:08.376Z,2.00
2024-04-18T00:52:35.061Z,2.50
2024-04-18T00:55:04.383Z,1.50
2024-04-18T00:57:33.508Z,1.92
2024-04-18T01:00:00.864Z,2.60
2024-04-18T01:02:30.346Z,1.55
2024-04-18T01:04:58.535Z,1.77
2024-04-18T01:07:25.873Z,2.08
2024-04-18T01:09:52.598Z,2.10
2024-04-18T01:12:19.318Z,2.42
2024-04-18T01:14:46.014Z,2.05
2024-04-18T01:17:12.763Z,2.10
2024-04-18T01:19:40.002Z,1.88
2024-04-18T01:22:06.879Z,1.20
2024-04-18T01:24:34.079Z,1.90
2024-04-18T01:27:00.972Z,2.25
2024-04-18T01:29:28.304Z,2.55
2024-04-18T01:31:55.139Z,2.28
2024-04-18T01:34:22.023Z,1.98
2024-04-18T01:36:49.671Z,2.45
2024-04-18T01:39:16.855Z,2.22
2024-04-18T01:41:43.851Z,2.35
2024-04-18T01:44:11.672Z,2.45
2024-04-18T01:46:38.320Z,2.40
2024-04-18T01:49:05.018Z,2.15
2024-04-18T01:51:31.680Z,2.05
2024-04-18T01:53:58.406Z,2.20
2024-04-18T01:56:25.064Z,1.63
2024-04-18T01:58:51.822Z,2.05
2024-04-18T02:01:24.207Z,2.10
2024-04-18T02:03:51.166Z,2.63
2024-04-18T02:06:17.848Z,2.42
2024-04-18T02:08:44.548Z,2.15
2024-04-18T02:11:11.211Z,2.10
2024-04-18T02:13:37.968Z,2.20
2024-04-18T02:16:05.328Z,2.28
2024-04-18T02:18:32.039Z,1.77
2024-04-18T02:20:58.693Z,2.10
2024-04-18T02:23:25.350Z,2.15
2024-04-18T02:25:52.048Z,2.08
2024-04-18T02:28:18.752Z,2.10
2024-04-18T02:30:45.533Z,1.95
2024-04-18T02:33:17.040Z,2.03
2024-04-18T02:35:44.058Z,2.35
2024-04-18T02:38:11.799Z,2.17
2024-04-18T02:40:38.685Z,1.63
2024-04-18T02:43:05.312Z,1.60
2024-04-18T02:45:32.164Z,1.95
2024-04-18T02:47:58.889Z,2.28
2024-04-18T02:50:25.584Z,2.30
2024-04-18T02:52:52.325Z,2.13
2024-04-18T02:55:18.985Z,2.20
2024-04-18T02:57:45.909Z,2.35
2024-04-18T03:00:12.828Z,1.88
2024-04-18T03:02:39.994Z,2.15
2024-04-18T03:05:06.759Z,2.30
2024-04-18T03:07:33.422Z,2.17
2024-04-18T03:10:00.023Z,2.30
2024-04-18T03:12:27.301Z,2.22
2024-04-18T03:14:53.963Z,2.60
2024-04-18T03:17:20.659Z,1.95
2024-04-18T03:19:47.338Z,2.83
2024-04-18T03:22:14.185Z,2.33
2024-04-18T03:24:40.901Z,2.40
2024-04-18T03:27:07.559Z,1.95
2024-04-18T03:29:34.192Z,2.30
2024-04-18T03:32:03.401Z,2.33
2024-04-18T03:34:30.261Z,2.33
2024-04-18T03:36:59.946Z,2.08
2024-04-18T03:39:29.856Z,2.50
2024-04-18T03:41:56.562Z,2.25
2024-04-18T03:44:23.251Z,2.38
2024-04-18T03:46:49.944Z,2.75
2024-04-18T03:49:16.870Z,2.40
2024-04-18T03:51:43.561Z,2.10
2024-04-18T03:54:10.426Z,2.47
2024-04-18T03:56:37.110Z,3.13
2024-04-18T03:59:03.782Z,2.17
2024-04-18T04:01:31.120Z,2.22
2024-04-18T04:03:58.249Z,2.42
2024-04-18T04:06:25.252Z,2.55
2024-04-18T04:08:51.968Z,2.42
2024-04-18T04:11:19.610Z,1.80
2024-04-18T04:13:46.484Z,2.55
2024-04-18T04:16:13.140Z,2.55
2024-04-18T04:18:39.980Z,2.72
2024-04-18T04:21:09.076Z,2.08
2024-04-18T04:26:02.960Z,3.00
2024-04-18T04:28:29.585Z,2.42
2024-04-18T04:30:56.238Z,2.90
2024-04-18T04:33:23.091Z,2.15
2024-04-18T04:35:49.759Z,2.50
2024-04-18T04:38:16.452Z,2.25
2024-04-18T04:40:43.123Z,2.67
2024-04-18T04:43:09.770Z,2.35
2024-04-18T04:45:36.459Z,2.45
2024-04-18T04:48:06.429Z,2.83
2024-04-18T04:50:33.217Z,2.83
2024-04-18T04:52:59.889Z,2.70
2024-04-18T04:55:26.506Z,2.90
2024-04-18T04:57:53.212Z,2.65
2024-04-18T05:00:20.005Z,2.63
2024-04-18T05:02:48.756Z,2.63
2024-04-18T05:05:16.540Z,3.05
2024-04-18T05:07:43.158Z,2.50
2024-04-18T05:10:09.854Z,3.08
2024-04-18T05:12:36.500Z,3.35
2024-04-18T05:15:03.440Z,2.72
2024-04-18T05:17:30.261Z,3.13
2024-04-18T05:19:56.913Z,2.92
2024-04-18T05:22:23.644Z,3.03
2024-04-18T05:24:50.286Z,3.08
2024-04-18T05:27:16.988Z,2.92
2024-04-18T05:30:02.356Z,2.50
2024-04-18T05:32:29.171Z,2.72
2024-04-18T05:34:55.982Z,3.08
2024-04-18T05:37:23.324Z,3.10
2024-04-18T05:39:50.610Z,2.72
2024-04-18T05:42:17.534Z,2.50
2024-04-18T05:44:44.309Z,2.95
2024-04-18T05:47:11.073Z,2.55
2024-04-18T05:49:37.852Z,2.72
2024-04-18T05:52:04.902Z,3.45
2024-04-18T05:54:32.725Z,2.92
2024-04-18T05:56:59.455Z,2.25
2024-04-18T05:59:26.143Z,2.05
2024-04-18T06:01:52.976Z,2.38
2024-04-18T06:04:19.809Z,2.45
2024-04-18T06:06:47.338Z,2.45
2024-04-18T06:09:14.052Z,1.70
2024-04-18T06:11:44.635Z,2.63
2024-04-18T06:14:11.450Z,2.88
2024-04-18T06:16:38.639Z,2.17
2024-04-18T06:19:05.392Z,1.70
2024-04-18T06:21:32.230Z,2.50
2024-04-18T06:23:58.952Z,2.40
2024-04-18T06:26:25.678Z,2.20
2024-04-18T06:28:52.682Z,1.02
2024-04-18T06:31:19.816Z,1.95
2024-04-18T06:33:47.619Z,2.05
2024-04-18T06:36:14.394Z,1.77
2024-04-18T06:38:41.239Z,2.83
2024-04-18T06:41:08.008Z,1.10
2024-04-18T06:43:34.787Z,1.77
2024-04-18T06:46:02.049Z,2.10
2024-04-18T06:48:28.946Z,1.95
2024-04-18T06:50:55.754Z,2.13
2024-04-18T06:53:22.600Z,2.72
2024-04-18T06:55:49.346Z,2.13
2024-04-18T06:58:16.091Z,1.00
2024-04-18T07:00:43.367Z,2.10
2024-04-18T07:03:13.272Z,1.75
2024-04-18T07:05:40.554Z,1.88
2024-04-18T07:08:07.379Z,1.50
2024-04-18T07:10:37.157Z,2.30
2024-04-18T07:13:04.432Z,1.20
2024-04-18T07:15:31.133Z,1.75
2024-04-18T07:17:58.601Z,1.90
2024-04-18T07:20:26.796Z,2.08
2024-04-18T07:22:54.509Z,1.50
2024-04-18T07:25:21.425Z,1.95
2024-04-18T07:27:49.646Z,1.98
2024-04-18T07:30:17.222Z,1.75
2024-04-18T07:32:44.604Z,2.13
2024-04-18T07:35:11.338Z,1.08
2024-04-18T07:37:38.081Z,2.25
2024-04-18T07:40:13.711Z,1.95
2024-04-18T07:42:40.455Z,1.52
2024-04-18T07:45:07.273Z,1.90
2024-04-18T07:47:34.177Z,1.60
2024-04-18T07:50:01.328Z,1.50
2024-04-18T07:52:28.172Z,1.75
2024-04-18T07:54:55.012Z,1.27
2024-04-18T07:57:22.189Z,1.73
2024-04-18T07:59:50.398Z,1.55
2024-04-18T08:02:20.255Z,1.73
2024-04-18T08:04:55.411Z,0.63
2024-04-18T08:07:29.067Z,1.10
2024-04-18T08:10:01.085Z,1.10
2024-04-18T08:12:34.769Z,1.30
2024-04-18T08:15:08.723Z,1.30
2024-04-18T08:17:40.465Z,1.20
2024-04-18T08:20:07.942Z,1.40
2024-04-18T08:22:35.454Z,1.42
2024-04-18T08:25:04.335Z,1.13
2024-04-18T08:27:31.175Z,1.02
2024-04-18T08:29:57.954Z,1.55
2024-04-18T08:32:24.905Z,1.17
2024-04-18T08:34:51.754Z,1.15
2024-04-18T08:37:18.525Z,1.00
2024-04-18T08:39:45.178Z,1.08
2024-04-18T08:42:13.835Z,0.98
2024-04-18T08:44:40.981Z,0.93
2024-04-18T08:47:10.277Z,1.15
2024-04-18T08:49:39.503Z,0.95
2024-04-18T08:52:07.902Z,0.98
2024-04-18T08:54:35.248Z,1.20
2024-04-18T08:57:05.764Z,0.95
2024-04-18T08:59:34.043Z,0.80
2024-04-18T09:02:01.757Z,1.15
2024-04-18T09:04:29.093Z,1.10
2024-04-18T09:06:55.814Z,1.17
2024-04-18T09:09:25.802Z,1.10
2024-04-18T09:11:52.582Z,0.95
2024-04-18T09:14:19.289Z,0.85
2024-04-18T09:16:46.189Z,0.90
2024-04-18T09:19:13.918Z,1.60
2024-04-18T09:21:41.274Z,0.57
2024-04-18T09:24:08.094Z,1.10
2024-04-18T09:26:34.902Z,0.95
2024-04-18T09:29:01.846Z,1.10
2024-04-18T09:31:37.709Z,1.10
2024-04-18T09:34:10.647Z,0.90
2024-04-18T09:36:41.241Z,1.15
2024-04-18T09:39:12.052Z,1.15
2024-04-18T09:41:44.386Z,1.40
2024-04-18T09:44:22.190Z,0.63
2024-04-18T09:46:51.902Z,0.93
2024-04-18T09:49:19.941Z,0.90
2024-04-18T09:51:48.220Z,1.00
2024-04-18T09:54:15.996Z,1.08
2024-04-18T09:56:44.240Z,0.90
2024-04-18T09:59:12.347Z,0.77
2024-04-18T10:01:41.467Z,1.00
2024-04-18T10:04:08.371Z,0.90
2024-04-18T10:06:37.908Z,0.80
2024-04-18T10:09:07.287Z,0.93
2024-04-18T10:11:35.197Z,1.00
2024-04-18T10:14:07.971Z,0.70
2024-04-18T10:16:49.780Z,0.85
2024-04-18T10:19:21.365Z,0.80
2024-04-18T10:24:36.039Z,1.00
2024-04-18T10:27:08.896Z,1.15
2024-04-18T10:29:36.044Z,1.23
2024-04-18T10:32:06.040Z,0.88
2024-04-18T10:34:34.181Z,0.73
2024-04-18T10:37:07.825Z,1.10
2024-04-18T10:39:41.460Z,0.90
2024-04-18T10:42:12.400Z,1.02
2024-04-18T10:44:39.361Z,1.38
2024-04-18T10:47:07.407Z,1.02
2024-04-18T10:49:39.517Z,0.63
2024-04-18T10:52:12.008Z,0.90
2024-04-18T10:54:39.005Z,0.90
2024-04-18T10:57:05.932Z,0.80
2024-04-18T10:59:32.720Z,0.52
2024-04-18T11:02:09.754Z,0.90
2024-04-18T11:04:36.562Z,1.00
2024-04-18T11:07:04.135Z,1.20
2024-04-18T11:09:32.471Z,1.75
2024-04-18T11:11:59.247Z,1.00
2024-04-18T11:14:26.924Z,1.23
2024-04-18T11:16:57.945Z,1.00
2024-04-18T11:19:25.057Z,1.08
2024-04-18T11:21:51.865Z,0.85
2024-04-18T11:24:18.828Z,1.10
2024-04-18T11:26:45.480Z,1.13
2024-04-18T11:29:12.119Z,0.85
2024-04-18T11:31:38.860Z,1.08
2024-04-18T11:34:05.625Z,1.02
2024-04-18T11:36:32.359Z,0.80
2024-04-18T11:39:01.842Z,1.30
2024-04-18T11:41:34.547Z,0.52
2024-04-18T11:44:02.767Z,1.10
2024-04-18T11:46:29.422Z,0.80
2024-04-18T11:48:56.299Z,0.80
2024-04-18T11:51:23.181Z,1.33
2024-04-18T11:53:49.822Z,1.45
2024-04-18T11:56:16.575Z,0.90
2024-04-18T11:58:43.604Z,1.08
2024-04-18T12:01:13.031Z,0.95
2024-04-18T12:03:41.501Z,0.98
2024-04-18T12:06:08.351Z,0.90
2024-04-18T12:08:35.074Z,1.10
2024-04-18T12:11:01.726Z,0.60
2024-04-18T12:13:29.225Z,1.00
2024-04-18T12:15:56.386Z,0.93
2024-04-18T12:18:23.209Z,1.17
2024-04-18T12:20:49.999Z,0.30
2024-04-18T12:23:16.648Z,1.08
2024-04-18T12:25:43.325Z,0.75
2024-04-18T12:28:09.944Z,0.85
2024-04-18T12:30:36.841Z,1.23
2024-04-18T12:33:03.753Z,1.00
2024-04-18T12:35:30.511Z,1.02
2024-04-18T12:37:58.417Z,0.90
2024-04-18T12:40:25.117Z,0.98
2024-04-18T12:42:52.027Z,0.45
2024-04-18T12:45:18.775Z,1.38
2024-04-18T12:47:45.575Z,0.95
2024-04-18T12:50:12.584Z,1.00
2024-04-18T12:52:39.309Z,0.93
2024-04-18T12:55:06.082Z,0.90
2024-04-18T12:57:32.747Z,1.45
2024-04-18T12:59:59.436Z,0.80
2024-04-18T13:02:26.071Z,0.90
2024-04-18T13:04:52.790Z,0.98
2024-04-18T13:07:20.642Z,0.90
2024-04-18T13:09:47.296Z,1.10
2024-04-18T13:12:14.090Z,1.48
2024-04-18T13:14:40.741Z,1.63
2024-04-18T13:17:07.389Z,1.90
2024-04-18T13:19:33.994Z,1.42
2024-04-18T13:22:01.074Z,1.45
2024-04-18T13:24:27.826Z,1.08
2024-04-18T13:26:55.094Z,1.00
2024-04-18T13:29:24.395Z,1.10
2024-04-18T13:31:52.534Z,1.10
2024-04-18T13:34:22.419Z,1.17
2024-04-18T13:36:49.568Z,1.02
2024-04-18T13:39:16.451Z,1.15
2024-04-18T13:41:46.759Z,1.20
2024-04-18T13:44:13.435Z,1.05
2024-04-18T13:46:40.157Z,1.08
2024-04-18T13:49:06.812Z,1.30
2024-04-18T13:51:33.482Z,1.50
2024-04-18T13:54:00.184Z,1.40
2024-04-18T13:56:26.994Z,0.43
2024-04-18T13:58:53.628Z,0.95
2024-04-18T14:01:20.329Z,1.05
2024-04-18T14:03:47.060Z,1.45
2024-04-18T14:06:13.740Z,1.02
2024-04-18T14:08:43.954Z,1.02
2024-04-18T14:11:10.652Z,1.00
2024-04-18T14:13:37.406Z,1.35
2024-04-18T14:16:27.194Z,1.10
2024-04-18T14:18:54.356Z,1.13
2024-04-18T14:21:23.978Z,0.85
2024-04-18T14:23:50.654Z,1.15
2024-04-18T14:26:17.289Z,1.23
2024-04-18T14:28:43.956Z,1.10
2024-04-18T14:31:10.582Z,1.55
2024-04-18T14:33:37.392Z,0.70
2024-04-18T14:36:04.500Z,1.13
2024-04-18T14:38:31.165Z,1.10
2024-04-18T14:41:05.952Z,1.30
2024-04-18T14:43:38.267Z,1.30
2024-04-18T14:46:05.115Z,2.10
2024-04-18T14:48:34.731Z,1.23
2024-04-18T14:51:01.633Z,1.27
2024-04-18T14:53:28.287Z,1.70
2024-04-18T14:55:54.988Z,1.48
2024-04-18T14:58:21.743Z,1.48
2024-04-18T15:00:54.148Z,1.17
2024-04-18T15:03:21.624Z,0.68
2024-04-18T15:05:59.909Z,1.20
2024-04-18T15:08:26.671Z,1.23
2024-04-18T15:10:53.428Z,1.35
2024-04-18T15:13:20.092Z,1.20
2024-04-18T15:15:46.861Z,1.33
2024-04-18T15:18:14.424Z,1.77
2024-04-18T15:20:41.798Z,1.40
2024-04-18T15:23:08.718Z,1.15
2024-04-18T15:25:35.349Z,1.08
2024-04-18T15:28:02.003Z,1.23
2024-04-18T15:30:28.759Z,1.55
2024-04-18T15:32:55.484Z,1.20
2024-04-18T15:35:22.257Z,1.10
2024-04-18T15:37:48.958Z,1.10
2024-04-18T15:40:17.815Z,0.73
2024-04-18T15:42:45.105Z,1.15
2024-04-18T15:45:11.962Z,0.80
2024-04-18T15:47:38.885Z,1.40
2024-04-18T15:50:05.996Z,0.82
2024-04-18T15:52:34.296Z,1.08
2024-04-18T15:55:12.215Z,1.13
2024-04-18T15:57:42.990Z,0.40
2024-04-18T16:00:11.158Z,0.88
2024-04-18T16:02:38.189Z,1.40
2024-04-18T16:05:05.418Z,1.20
2024-04-18T16:07:32.271Z,0.98
2024-04-18T16:09:59.970Z,1.25
2024-04-18T16:12:26.939Z,1.30
2024-04-18T16:14:53.781Z,1.00
2024-04-18T16:17:20.601Z,1.15
2024-04-18T16:19:49.629Z,1.40
2024-04-18T16:22:16.265Z,1.00
2024-04-18T16:24:42.944Z,1.35
2024-04-18T16:27:09.693Z,1.55
2024-04-18T16:29:36.473Z,1.33
2024-04-18T16:32:03.096Z,1.30
2024-04-18T16:34:29.753Z,1.75
2024-04-18T16:37:09.089Z,0.65
2024-04-18T16:39:39.983Z,1.27
2024-04-18T16:42:07.551Z,2.28
2024-04-18T16:44:34.289Z,1.20
2024-04-18T16:47:01.024Z,1.05
2024-04-18T16:49:27.780Z,1.27
2024-04-18T16:51:54.427Z,1.27
2024-04-18T16:54:21.167Z,1.88
2024-04-18T16:56:48.252Z,1.38
2024-04-18T16:59:14.997Z,1.38
2024-04-18T17:01:41.822Z,1.48
2024-04-18T17:04:08.653Z,1.40
2024-04-18T17:06:42.191Z,0.90
2024-04-18T17:09:14.584Z,1.23
2024-04-18T17:11:41.262Z,1.15
2024-04-18T17:14:07.930Z,1.55
2024-04-18T17:16:34.828Z,0.65
2024-04-18T17:19:01.635Z,1.08
2024-04-18T17:21:28.381Z,2.00
2024-04-18T17:23:56.056Z,1.63
2024-04-18T17:26:24.633Z,1.95
2024-04-18T17:28:52.458Z,1.13
2024-04-18T17:31:19.161Z,1.38
2024-04-18T17:33:45.908Z,1.00
2024-04-18T17:36:15.142Z,1.20
2024-04-18T17:38:43.456Z,1.33
2024-04-18T17:41:10.134Z,1.27
2024-04-18T17:43:36.820Z,1.55
2024-04-18T17:46:03.744Z,0.70
2024-04-18T17:48:30.684Z,1.20
2024-04-18T17:50:57.674Z,1.80
2024-04-18T17:53:24.316Z,2.92
2024-04-18T17:55:52.042Z,1.52
2024-04-18T17:58:20.809Z,2.33
2024-04-18T18:00:47.579Z,2.42
2024-04-18T18:03:14.442Z,1.63
2024-04-18T18:05:43.190Z,1.73
2024-04-18T18:08:09.883Z,2.13
2024-04-18T18:10:36.596Z,1.95
2024-04-18T18:13:03.757Z,1.67
2024-04-18T18:15:30.485Z,1.92
2024-04-18T18:17:57.792Z,1.33
2024-04-18T18:20:24.499Z,1.52
2024-04-18T18:22:51.720Z,2.13
2024-04-18T18:25:18.355Z,1.42
2024-04-18T18:27:45.038Z,1.33
2024-04-18T18:30:11.880Z,1.50
2024-04-18T18:32:38.654Z,1.50
2024-04-18T18:35:06.890Z,1.50
2024-04-18T18:37:33.585Z,1.67
2024-04-18T18:40:00.327Z,1.50
2024-04-18T18:42:27.043Z,2.38
2024-04-18T18:44:53.655Z,1.70
2024-04-18T18:47:20.493Z,2.00
2024-04-18T18:49:47.217Z,1.48
2024-04-18T18:52:13.895Z,1.25
2024-04-18T18:54:40.873Z,1.30
2024-04-18T18:57:08.605Z,1.92
2024-04-18T18:59:35.499Z,1.17
2024-04-18T19:02:02.214Z,1.40
2024-04-18T19:04:29.088Z,1.42
2024-04-18T19:06:55.943Z,1.83
2024-04-18T19:09:23.703Z,1.73
2024-04-18T19:11:51.107Z,1.75
2024-04-18T19:14:18.043Z,1.73
2024-04-18T19:16:44.813Z,1.90
2024-04-18T19:19:11.562Z,1.90
2024-04-18T19:21:38.259Z,1.88
2024-04-18T19:24:05.117Z,1.50
2024-04-18T19:26:32.493Z,1.40
2024-04-18T19:28:59.142Z,1.30
2024-04-18T19:31:26.038Z,3.05
2024-04-18T19:33:53.065Z,1.95
2024-04-18T19:36:20.630Z,2.28
2024-04-18T19:38:47.587Z,1.38
2024-04-18T19:41:14.331Z,1.45
2024-04-18T19:43:41.031Z,1.73
2024-04-18T19:46:07.749Z,2.03
2024-04-18T19:48:34.679Z,1.75
2024-04-18T19:51:01.432Z,1.67
2024-04-18T19:53:28.094Z,1.58
2024-04-18T19:55:58.480Z,2.35
2024-04-18T19:58:25.239Z,1.55
2024-04-18T20:00:52.168Z,1.48
2024-04-18T20:03:19.442Z,1.70
2024-04-18T20:05:46.336Z,1.67
2024-04-18T20:08:13.127Z,1.63
2024-04-18T20:10:39.864Z,1.52
2024-04-18T20:13:06.614Z,1.48
2024-04-18T20:15:33.557Z,1.35
2024-04-18T20:18:01.101Z,1.50
2024-04-18T20:20:27.967Z,1.35
2024-04-18T20:22:55.205Z,1.50
2024-04-18T20:25:21.992Z,1.50
2024-04-18T20:27:49.529Z,1.58
2024-04-18T20:30:16.642Z,1.65
2024-04-18T20:32:43.801Z,1.73
2024-04-18T20:35:11.257Z,1.60
2024-04-18T20:37:38.174Z,1.58
2024-04-18T20:40:05.326Z,1.60
2024-04-18T20:42:31.988Z,1.63
2024-04-18T20:44:59.295Z,1.00
2024-04-18T20:47:26.584Z,2.05
2024-04-18T20:49:53.324Z,2.40
2024-04-18T20:52:19.989Z,2.55
2024-04-18T20:54:46.748Z,4.03
2024-04-18T20:57:13.467Z,1.90
2024-04-18T20:59:42.449Z,1.85
2024-04-18T21:02:10.155Z,1.58
2024-04-18T21:04:37.129Z,1.75
2024-04-18T21:07:03.845Z,1.48
2024-04-18T21:09:30.542Z,1.92
2024-04-18T21:11:57.259Z,1.65
2024-04-18T21:14:23.852Z,1.80
2024-04-18T21:16:50.469Z,1.65
2024-04-18T21:19:21.014Z,1.55
2024-04-18T21:21:48.715Z,1.70
2024-04-18T21:24:15.561Z,1.35
2024-04-18T21:26:42.449Z,1.35
2024-04-18T21:29:09.119Z,1.83
2024-04-18T21:31:35.988Z,1.35
2024-04-18T21:34:02.822Z,1.55
2024-04-18T21:36:29.598Z,1.90
2024-04-18T21:39:00.269Z,1.52
2024-04-18T21:41:28.767Z,1.58
2024-04-18T21:43:56.190Z,2.55
2024-04-18T21:46:22.957Z,2.00
2024-04-18T21:48:49.897Z,1.95
2024-04-18T21:51:16.720Z,1.75
2024-04-18T21:53:43.372Z,1.58
2024-04-18T21:56:10.535Z,1.88
2024-04-18T21:58:37.464Z,1.48
2024-04-18T22:01:04.483Z,1.50
2024-04-18T22:03:31.399Z,1.60
2024-04-18T22:05:59.086Z,1.60
2024-04-18T22:08:26.030Z,1.77
2024-04-18T22:10:52.784Z,1.52
2024-04-18T22:13:19.968Z,1.70
2024-04-18T22:15:46.692Z,1.50
2024-04-18T22:18:13.475Z,1.02
2024-04-18T22:20:40.346Z,1.77
2024-04-18T22:23:07.373Z,1.70
2024-04-18T22:25:34.142Z,1.77
2024-04-18T22:28:00.924Z,1.88
2024-04-18T22:30:27.674Z,1.85
2024-04-18T22:32:54.615Z,1.60
2024-04-18T22:35:21.338Z,1.85
2024-04-18T22:37:48.055Z,1.60
2024-04-18T22:40:14.799Z,2.00
2024-04-18T22:42:41.732Z,1.55
2024-04-18T22:45:08.820Z,1.80
2024-04-18T22:47:35.610Z,2.20
2024-04-18T22:50:02.362Z,2.00
2024-04-18T22:52:29.221Z,2.13
2024-04-18T22:54:56.002Z,1.90
2024-04-18T22:57:22.834Z,2.35
2024-04-18T22:59:49.922Z,2.00
2024-04-18T23:02:16.970Z,2.40
2024-04-18T23:04:43.863Z,1.90
2024-04-18T23:07:10.792Z,2.22
2024-04-18T23:09:37.693Z,2.65
2024-04-18T23:12:04.721Z,1.92
2024-04-18T23:14:31.393Z,2.28
2024-04-18T23:16:57.999Z,2.40
2024-04-18T23:19:24.645Z,2.28
2024-04-18T23:21:51.279Z,2.10
2024-04-18T23:24:17.933Z,2.50
2024-04-18T23:26:44.647Z,2.38
2024-04-18T23:29:11.355Z,2.38
2024-04-18T23:31:38.047Z,2.75
2024-04-18T23:34:04.771Z,2.70
2024-04-18T23:36:31.488Z,2.83
2024-04-18T23:38:58.165Z,3.13
2024-04-18T23:41:24.768Z,3.00
2024-04-18T23:43:51.431Z,2.75
2024-04-18T23:46:18.175Z,2.80
2024-04-18T23:48:44.980Z,3.35
2024-04-18T23:51:11.760Z,3.05
2024-04-18T23:53:38.419Z,2.70
2024-04-18T23:56:05.431Z,3.42
2024-04-18T23:58:32.204Z,3.45
